sensor_id;sensor_type;location;lat;lon;timestamp;pressure;altitude;pressure_sealevel;temperature;humidity
54554;BME280;40450;55.848;-3.572;2023-05-19T00:01:51;100534.28;;;14.26;80.14
54554;BME280;40450;55.848;-3.572;2023-05-19T00:04:27;100526.39;;;14.77;77.80
54554;BME280;40450;55.848;-3.572;2023-05-19T00:06:53;100525.05;;;15.22;76.31
54554;BME280;40450;55.848;-3.572;2023-05-19T00:09:22;100521.51;;;15.03;74.78
54554;BME280;40450;55.848;-3.572;2023-05-19T00:11:53;100516.93;;;15.25;74.83
54554;BME280;40450;55.848;-3.572;2023-05-19T00:14:23;100513.13;;;15.09;73.47
54554;BME280;40450;55.848;-3.572;2023-05-19T00:16:53;100512.42;;;15.68;72.92
54554;BME280;40450;55.848;-3.572;2023-05-19T00:19:24;100508.95;;;15.21;73.24
54554;BME280;40450;55.848;-3.572;2023-05-19T00:21:53;100503.63;;;16.18;71.61
54554;BME280;40450;55.848;-3.572;2023-05-19T00:24:24;100504.20;;;16.11;71.60
54554;BME280;40450;55.848;-3.572;2023-05-19T00:26:54;100504.06;;;15.77;72.56
54554;BME280;40450;55.848;-3.572;2023-05-19T00:29:24;100506.22;;;15.60;72.85
54554;BME280;40450;55.848;-3.572;2023-05-19T00:31:55;100507.38;;;15.34;73.20
54554;BME280;40450;55.848;-3.572;2023-05-19T00:34:25;100509.56;;;16.15;71.66
54554;BME280;40450;55.848;-3.572;2023-05-19T00:36:56;100518.18;;;15.90;70.82
54554;BME280;40450;55.848;-3.572;2023-05-19T00:39:26;100527.49;;;15.08;72.95
54554;BME280;40450;55.848;-3.572;2023-05-19T00:41:56;100535.81;;;15.68;70.90
54554;BME280;40450;55.848;-3.572;2023-05-19T00:44:27;100529.51;;;14.99;72.63
54554;BME280;40450;55.848;-3.572;2023-05-19T00:46:57;100535.97;;;15.52;71.73
54554;BME280;40450;55.848;-3.572;2023-05-19T00:49:27;100538.40;;;15.17;72.24
54554;BME280;40450;55.848;-3.572;2023-05-19T00:51:59;100538.40;;;15.36;71.54
54554;BME280;40450;55.848;-3.572;2023-05-19T00:54:28;100526.18;;;14.67;72.86
54554;BME280;40450;55.848;-3.572;2023-05-19T00:56:59;100523.04;;;15.44;71.35
54554;BME280;40450;55.848;-3.572;2023-05-19T00:59:29;100514.77;;;14.87;72.53
54554;BME280;40450;55.848;-3.572;2023-05-19T01:02:00;100522.21;;;14.99;72.20
54554;BME280;40450;55.848;-3.572;2023-05-19T01:04:30;100523.41;;;14.80;72.45
54554;BME280;40450;55.848;-3.572;2023-05-19T01:07:00;100533.88;;;14.71;72.48
54554;BME280;40450;55.848;-3.572;2023-05-19T01:09:31;100539.90;;;14.81;72.23
54554;BME280;40450;55.848;-3.572;2023-05-19T01:12:02;100539.61;;;14.91;72.09
54554;BME280;40450;55.848;-3.572;2023-05-19T01:14:32;100542.21;;;15.04;71.51
54554;BME280;40450;55.848;-3.572;2023-05-19T01:17:06;100544.75;;;15.45;70.76
54554;BME280;40450;55.848;-3.572;2023-05-19T01:19:49;100542.73;;;15.03;71.28
54554;BME280;40450;55.848;-3.572;2023-05-19T01:22:11;100541.59;;;15.20;71.02
54554;BME280;40450;55.848;-3.572;2023-05-19T01:27:19;100536.43;;;15.49;69.82
54554;BME280;40450;55.848;-3.572;2023-05-19T01:29:41;100537.32;;;15.49;70.19
54554;BME280;40450;55.848;-3.572;2023-05-19T01:32:05;100533.52;;;15.71;69.68
54554;BME280;40450;55.848;-3.572;2023-05-19T01:34:37;100539.92;;;15.63;69.14
54554;BME280;40450;55.848;-3.572;2023-05-19T01:37:07;100546.04;;;15.54;69.10
54554;BME280;40450;55.848;-3.572;2023-05-19T01:39:36;100550.64;;;15.16;69.52
54554;BME280;40450;55.848;-3.572;2023-05-19T01:42:06;100551.74;;;14.62;71.64
54554;BME280;40450;55.848;-3.572;2023-05-19T01:44:37;100551.96;;;14.95;69.89
54554;BME280;40450;55.848;-3.572;2023-05-19T01:47:07;100557.31;;;14.65;71.01
54554;BME280;40450;55.848;-3.572;2023-05-19T01:49:37;100552.21;;;14.69;71.05
54554;BME280;40450;55.848;-3.572;2023-05-19T01:52:07;100550.72;;;14.41;71.83
54554;BME280;40450;55.848;-3.572;2023-05-19T01:54:37;100545.44;;;14.29;72.09
54554;BME280;40450;55.848;-3.572;2023-05-19T01:57:14;100534.80;;;14.22;71.83
54554;BME280;40450;55.848;-3.572;2023-05-19T01:59:46;100537.59;;;13.91;73.11
54554;BME280;40450;55.848;-3.572;2023-05-19T02:02:15;100534.83;;;14.39;71.57
54554;BME280;40450;55.848;-3.572;2023-05-19T02:04:42;100538.08;;;14.93;71.04
54554;BME280;40450;55.848;-3.572;2023-05-19T02:07:15;100550.63;;;15.36;70.01
54554;BME280;40450;55.848;-3.572;2023-05-19T02:09:49;100552.50;;;15.75;68.86
54554;BME280;40450;55.848;-3.572;2023-05-19T02:12:15;100553.24;;;15.77;68.33
54554;BME280;40450;55.848;-3.572;2023-05-19T02:14:47;100553.35;;;15.70;68.18
54554;BME280;40450;55.848;-3.572;2023-05-19T02:17:12;100558.59;;;15.70;67.40
54554;BME280;40450;55.848;-3.572;2023-05-19T02:19:43;100555.29;;;15.93;66.98
54554;BME280;40450;55.848;-3.572;2023-05-19T02:22:11;100550.62;;;15.73;67.66
54554;BME280;40450;55.848;-3.572;2023-05-19T02:24:53;100549.96;;;15.44;67.48
54554;BME280;40450;55.848;-3.572;2023-05-19T02:27:15;100549.93;;;15.56;67.55
54554;BME280;40450;55.848;-3.572;2023-05-19T02:29:43;100553.48;;;15.84;66.25
54554;BME280;40450;55.848;-3.572;2023-05-19T02:32:13;100554.37;;;15.84;66.32
54554;BME280;40450;55.848;-3.572;2023-05-19T02:34:43;100556.58;;;16.13;66.12
54554;BME280;40450;55.848;-3.572;2023-05-19T02:37:16;100554.71;;;16.27;64.85
54554;BME280;40450;55.848;-3.572;2023-05-19T02:39:44;100552.81;;;16.05;64.83
54554;BME280;40450;55.848;-3.572;2023-05-19T02:42:15;100554.36;;;15.41;66.54
54554;BME280;40450;55.848;-3.572;2023-05-19T02:44:45;100558.63;;;15.45;66.13
54554;BME280;40450;55.848;-3.572;2023-05-19T02:47:15;100565.85;;;15.36;66.28
54554;BME280;40450;55.848;-3.572;2023-05-19T02:49:48;100571.10;;;15.36;66.15
54554;BME280;40450;55.848;-3.572;2023-05-19T02:52:16;100568.81;;;15.35;66.20
54554;BME280;40450;55.848;-3.572;2023-05-19T02:54:47;100567.32;;;15.14;66.56
54554;BME280;40450;55.848;-3.572;2023-05-19T02:57:17;100567.38;;;14.59;68.11
54554;BME280;40450;55.848;-3.572;2023-05-19T02:59:48;100567.71;;;14.44;68.24
54554;BME280;40450;55.848;-3.572;2023-05-19T03:02:18;100569.84;;;14.61;68.62
54554;BME280;40450;55.848;-3.572;2023-05-19T03:04:48;100573.57;;;14.70;68.26
54554;BME280;40450;55.848;-3.572;2023-05-19T03:07:19;100576.62;;;14.11;69.65
54554;BME280;40450;55.848;-3.572;2023-05-19T03:09:50;100577.70;;;13.61;71.04
54554;BME280;40450;55.848;-3.572;2023-05-19T03:12:19;100573.66;;;13.07;73.13
54554;BME280;40450;55.848;-3.572;2023-05-19T03:14:50;100572.24;;;13.10;73.24
54554;BME280;40450;55.848;-3.572;2023-05-19T03:17:20;100571.02;;;13.12;72.25
54554;BME280;40450;55.848;-3.572;2023-05-19T03:19:50;100567.33;;;13.60;71.23
54554;BME280;40450;55.848;-3.572;2023-05-19T03:22:21;100567.86;;;13.74;71.38
54554;BME280;40450;55.848;-3.572;2023-05-19T03:24:51;100567.93;;;13.96;70.24
54554;BME280;40450;55.848;-3.572;2023-05-19T03:27:21;100563.91;;;13.76;70.60
54554;BME280;40450;55.848;-3.572;2023-05-19T03:29:51;100563.25;;;13.68;70.80
54554;BME280;40450;55.848;-3.572;2023-05-19T03:32:22;100557.24;;;13.50;70.96
54554;BME280;40450;55.848;-3.572;2023-05-19T03:34:52;100556.60;;;13.18;71.21
54554;BME280;40450;55.848;-3.572;2023-05-19T03:37:22;100559.53;;;12.77;72.46
54554;BME280;40450;55.848;-3.572;2023-05-19T03:39:53;100558.35;;;13.21;71.65
54554;BME280;40450;55.848;-3.572;2023-05-19T03:42:23;100559.22;;;13.39;71.02
54554;BME280;40450;55.848;-3.572;2023-05-19T03:44:53;100561.90;;;13.58;70.44
54554;BME280;40450;55.848;-3.572;2023-05-19T03:47:23;100561.81;;;13.56;70.17
54554;BME280;40450;55.848;-3.572;2023-05-19T03:52:24;100564.57;;;12.71;72.65
54554;BME280;40450;55.848;-3.572;2023-05-19T03:54:54;100566.11;;;12.75;73.29
54554;BME280;40450;55.848;-3.572;2023-05-19T03:57:24;100570.72;;;12.97;72.14
54554;BME280;40450;55.848;-3.572;2023-05-19T03:59:54;100572.95;;;12.98;71.42
54554;BME280;40450;55.848;-3.572;2023-05-19T04:02:25;100573.59;;;13.33;71.13
54554;BME280;40450;55.848;-3.572;2023-05-19T04:04:55;100577.34;;;13.32;70.73
54554;BME280;40450;55.848;-3.572;2023-05-19T04:07:25;100579.55;;;13.04;71.63
54554;BME280;40450;55.848;-3.572;2023-05-19T04:09:56;100582.98;;;13.56;70.32
54554;BME280;40450;55.848;-3.572;2023-05-19T04:12:26;100588.75;;;13.80;70.35
54554;BME280;40450;55.848;-3.572;2023-05-19T04:14:56;100587.25;;;13.78;69.58
54554;BME280;40450;55.848;-3.572;2023-05-19T04:17:27;100588.57;;;14.04;69.89
54554;BME280;40450;55.848;-3.572;2023-05-19T04:19:57;100586.33;;;14.07;69.14
54554;BME280;40450;55.848;-3.572;2023-05-19T04:22:27;100585.89;;;14.56;68.32
54554;BME280;40450;55.848;-3.572;2023-05-19T04:24:58;100588.51;;;14.32;68.53
54554;BME280;40450;55.848;-3.572;2023-05-19T04:27:28;100586.87;;;14.40;68.43
54554;BME280;40450;55.848;-3.572;2023-05-19T04:29:58;100582.13;;;14.48;68.14
54554;BME280;40450;55.848;-3.572;2023-05-19T04:32:33;100582.44;;;14.10;68.78
54554;BME280;40450;55.848;-3.572;2023-05-19T04:35:04;100583.32;;;14.10;68.95
54554;BME280;40450;55.848;-3.572;2023-05-19T04:37:34;100594.02;;;13.98;68.94
54554;BME280;40450;55.848;-3.572;2023-05-19T04:40:05;100595.47;;;14.01;69.20
54554;BME280;40450;55.848;-3.572;2023-05-19T04:42:34;100596.36;;;14.06;69.09
54554;BME280;40450;55.848;-3.572;2023-05-19T04:45:01;100597.33;;;14.08;69.35
54554;BME280;40450;55.848;-3.572;2023-05-19T04:47:38;100595.57;;;14.57;68.20
54554;BME280;40450;55.848;-3.572;2023-05-19T04:50:01;100594.53;;;14.58;66.78
54554;BME280;40450;55.848;-3.572;2023-05-19T04:52:31;100603.50;;;14.99;67.60
54554;BME280;40450;55.848;-3.572;2023-05-19T04:55:02;100602.05;;;15.12;66.57
54554;BME280;40450;55.848;-3.572;2023-05-19T04:57:32;100603.65;;;14.89;66.23
54554;BME280;40450;55.848;-3.572;2023-05-19T05:00:02;100609.92;;;15.29;66.93
54554;BME280;40450;55.848;-3.572;2023-05-19T05:02:32;100611.01;;;15.04;66.09
54554;BME280;40450;55.848;-3.572;2023-05-19T05:05:04;100609.17;;;14.46;67.44
54554;BME280;40450;55.848;-3.572;2023-05-19T05:07:32;100610.56;;;15.02;66.81
54554;BME280;40450;55.848;-3.572;2023-05-19T05:10:03;100609.59;;;15.00;66.48
54554;BME280;40450;55.848;-3.572;2023-05-19T05:12:34;100604.45;;;14.42;67.68
54554;BME280;40450;55.848;-3.572;2023-05-19T05:15:09;100604.79;;;14.71;67.30
54554;BME280;40450;55.848;-3.572;2023-05-19T05:17:33;100605.54;;;14.68;66.75
54554;BME280;40450;55.848;-3.572;2023-05-19T05:20:04;100612.45;;;14.85;66.69
54554;BME280;40450;55.848;-3.572;2023-05-19T05:22:34;100611.81;;;14.96;66.21
54554;BME280;40450;55.848;-3.572;2023-05-19T05:25:06;100610.48;;;14.67;66.52
54554;BME280;40450;55.848;-3.572;2023-05-19T05:27:34;100614.25;;;14.77;66.59
54554;BME280;40450;55.848;-3.572;2023-05-19T05:30:06;100611.48;;;14.74;66.41
54554;BME280;40450;55.848;-3.572;2023-05-19T05:32:35;100611.67;;;14.91;66.63
54554;BME280;40450;55.848;-3.572;2023-05-19T05:35:05;100613.22;;;13.87;68.84
54554;BME280;40450;55.848;-3.572;2023-05-19T05:37:35;100622.35;;;12.45;73.26
54554;BME280;40450;55.848;-3.572;2023-05-19T05:40:07;100615.09;;;14.54;68.62
54554;BME280;40450;55.848;-3.572;2023-05-19T05:42:35;100613.11;;;14.75;68.24
54554;BME280;40450;55.848;-3.572;2023-05-19T05:45:07;100612.19;;;14.98;66.93
54554;BME280;40450;55.848;-3.572;2023-05-19T05:47:37;100616.26;;;14.34;68.91
54554;BME280;40450;55.848;-3.572;2023-05-19T05:50:08;100622.41;;;13.98;70.17
54554;BME280;40450;55.848;-3.572;2023-05-19T05:52:38;100629.35;;;13.63;71.32
54554;BME280;40450;55.848;-3.572;2023-05-19T05:55:08;100625.02;;;14.73;69.36
54554;BME280;40450;55.848;-3.572;2023-05-19T05:57:37;100620.29;;;15.11;68.68
54554;BME280;40450;55.848;-3.572;2023-05-19T06:00:09;100620.08;;;15.59;67.70
54554;BME280;40450;55.848;-3.572;2023-05-19T06:02:38;100617.99;;;15.49;67.21
54554;BME280;40450;55.848;-3.572;2023-05-19T06:05:09;100618.34;;;15.33;67.38
54554;BME280;40450;55.848;-3.572;2023-05-19T06:07:39;100620.18;;;15.52;67.54
54554;BME280;40450;55.848;-3.572;2023-05-19T06:10:09;100627.93;;;14.01;70.38
54554;BME280;40450;55.848;-3.572;2023-05-19T06:12:39;100623.34;;;14.57;69.75
54554;BME280;40450;55.848;-3.572;2023-05-19T06:15:10;100619.93;;;14.66;69.20
54554;BME280;40450;55.848;-3.572;2023-05-19T06:17:39;100618.75;;;15.16;67.85
54554;BME280;40450;55.848;-3.572;2023-05-19T06:20:12;100616.21;;;15.30;67.71
54554;BME280;40450;55.848;-3.572;2023-05-19T06:22:40;100614.81;;;14.90;68.40
54554;BME280;40450;55.848;-3.572;2023-05-19T06:25:12;100619.22;;;15.13;67.71
54554;BME280;40450;55.848;-3.572;2023-05-19T06:27:40;100622.00;;;15.88;66.77
54554;BME280;40450;55.848;-3.572;2023-05-19T06:30:12;100632.59;;;15.77;66.04
54554;BME280;40450;55.848;-3.572;2023-05-19T06:32:42;100626.65;;;15.09;67.56
54554;BME280;40450;55.848;-3.572;2023-05-19T06:35:12;100630.30;;;15.27;67.18
54554;BME280;40450;55.848;-3.572;2023-05-19T06:37:42;100625.95;;;15.86;67.15
54554;BME280;40450;55.848;-3.572;2023-05-19T06:40:13;100624.57;;;15.37;66.80
54554;BME280;40450;55.848;-3.572;2023-05-19T06:42:43;100632.64;;;14.44;70.08
54554;BME280;40450;55.848;-3.572;2023-05-19T06:45:14;100634.02;;;14.50;71.25
54554;BME280;40450;55.848;-3.572;2023-05-19T06:47:44;100645.11;;;11.88;79.91
54554;BME280;40450;55.848;-3.572;2023-05-19T06:50:15;100637.99;;;13.94;74.92
54554;BME280;40450;55.848;-3.572;2023-05-19T06:52:45;100642.38;;;13.96;72.94
54554;BME280;40450;55.848;-3.572;2023-05-19T06:55:16;100638.20;;;14.67;70.95
54554;BME280;40450;55.848;-3.572;2023-05-19T06:57:46;100629.93;;;15.28;69.76
54554;BME280;40450;55.848;-3.572;2023-05-19T07:00:16;100622.96;;;15.61;67.40
54554;BME280;40450;55.848;-3.572;2023-05-19T07:02:46;100629.81;;;15.87;66.96
54554;BME280;40450;55.848;-3.572;2023-05-19T07:05:17;100633.84;;;15.46;67.56
54554;BME280;40450;55.848;-3.572;2023-05-19T07:07:49;100638.72;;;15.29;67.70
54554;BME280;40450;55.848;-3.572;2023-05-19T07:10:24;100643.62;;;15.34;67.89
54554;BME280;40450;55.848;-3.572;2023-05-19T07:12:48;100651.82;;;14.97;67.71
54554;BME280;40450;55.848;-3.572;2023-05-19T07:17:57;100655.20;;;14.35;70.09
54554;BME280;40450;55.848;-3.572;2023-05-19T07:20:28;100661.78;;;12.07;79.59
54554;BME280;40450;55.848;-3.572;2023-05-19T07:22:50;100652.52;;;13.52;74.73
54554;BME280;40450;55.848;-3.572;2023-05-19T07:25:20;100662.77;;;12.33;78.48
54554;BME280;40450;55.848;-3.572;2023-05-19T07:27:51;100668.83;;;10.31;84.53
54554;BME280;40450;55.848;-3.572;2023-05-19T07:30:21;100673.81;;;11.64;81.91
54554;BME280;40450;55.848;-3.572;2023-05-19T07:32:52;100672.73;;;13.67;75.69
54554;BME280;40450;55.848;-3.572;2023-05-19T07:35:22;100678.41;;;13.80;74.23
54554;BME280;40450;55.848;-3.572;2023-05-19T07:37:52;100683.11;;;11.53;82.44
54554;BME280;40450;55.848;-3.572;2023-05-19T07:40:22;100683.59;;;12.43;78.87
54554;BME280;40450;55.848;-3.572;2023-05-19T07:42:53;100677.88;;;13.80;77.13
54554;BME280;40450;55.848;-3.572;2023-05-19T07:45:23;100690.35;;;13.88;75.57
54554;BME280;40450;55.848;-3.572;2023-05-19T07:47:53;100689.30;;;14.79;73.76
54554;BME280;40450;55.848;-3.572;2023-05-19T07:50:29;100684.08;;;13.75;73.76
54554;BME280;40450;55.848;-3.572;2023-05-19T07:52:54;100691.02;;;12.31;79.50
54554;BME280;40450;55.848;-3.572;2023-05-19T07:55:25;100685.34;;;13.55;77.46
54554;BME280;40450;55.848;-3.572;2023-05-19T07:57:55;100686.31;;;13.82;74.86
54554;BME280;40450;55.848;-3.572;2023-05-19T08:00:25;100680.68;;;14.86;74.66
54554;BME280;40450;55.848;-3.572;2023-05-19T08:02:55;100687.46;;;13.13;76.53
54554;BME280;40450;55.848;-3.572;2023-05-19T08:05:31;100693.48;;;11.15;81.26
54554;BME280;40450;55.848;-3.572;2023-05-19T08:07:56;100694.36;;;12.32;78.42
54554;BME280;40450;55.848;-3.572;2023-05-19T08:10:32;100688.15;;;12.95;78.47
54554;BME280;40450;55.848;-3.572;2023-05-19T08:13:05;100689.69;;;14.05;74.14
54554;BME280;40450;55.848;-3.572;2023-05-19T08:15:37;100687.10;;;13.88;71.64
54554;BME280;40450;55.848;-3.572;2023-05-19T08:18:00;100687.25;;;15.01;71.37
54554;BME280;40450;55.848;-3.572;2023-05-19T08:20:37;100700.99;;;10.80;81.95
54554;BME280;40450;55.848;-3.572;2023-05-19T08:23:08;100699.84;;;11.27;81.74
54554;BME280;40450;55.848;-3.572;2023-05-19T08:25:30;100694.95;;;14.19;74.09
54554;BME280;40450;55.848;-3.572;2023-05-19T08:28:06;100697.29;;;13.12;76.65
54554;BME280;40450;55.848;-3.572;2023-05-19T08:30:30;100699.70;;;15.23;68.92
54554;BME280;40450;55.848;-3.572;2023-05-19T08:33:07;100699.46;;;13.30;73.14
54554;BME280;40450;55.848;-3.572;2023-05-19T08:35:31;100703.52;;;12.72;77.01
54554;BME280;40450;55.848;-3.572;2023-05-19T08:38:01;100688.24;;;14.75;68.88
54554;BME280;40450;55.848;-3.572;2023-05-19T08:40:32;100698.45;;;11.95;76.49
54554;BME280;40450;55.848;-3.572;2023-05-19T08:43:01;100688.04;;;14.37;71.50
54554;BME280;40450;55.848;-3.572;2023-05-19T08:45:32;100682.25;;;15.11;69.90
54554;BME280;40450;55.848;-3.572;2023-05-19T08:48:02;100687.92;;;11.42;77.80
54554;BME280;40450;55.848;-3.572;2023-05-19T08:50:36;100686.94;;;11.34;80.31
54554;BME280;40450;55.848;-3.572;2023-05-19T08:53:18;100677.72;;;14.01;71.43
54554;BME280;40450;55.848;-3.572;2023-05-19T08:55:38;100673.74;;;14.58;68.01
54554;BME280;40450;55.848;-3.572;2023-05-19T08:58:03;100669.37;;;14.85;68.41
54554;BME280;40450;55.848;-3.572;2023-05-19T09:00:34;100667.75;;;15.10;65.53
54554;BME280;40450;55.848;-3.572;2023-05-19T09:03:04;100659.24;;;13.93;67.04
54554;BME280;40450;55.848;-3.572;2023-05-19T09:05:34;100662.61;;;15.05;63.61
54554;BME280;40450;55.848;-3.572;2023-05-19T09:08:07;100659.62;;;14.87;63.68
54554;BME280;40450;55.848;-3.572;2023-05-19T09:10:40;100659.26;;;15.95;63.43
54554;BME280;40450;55.848;-3.572;2023-05-19T09:13:10;100662.05;;;16.91;61.36
54554;BME280;40450;55.848;-3.572;2023-05-19T09:15:38;100660.97;;;14.08;66.87
54554;BME280;40450;55.848;-3.572;2023-05-19T09:18:07;100667.93;;;11.55;72.24
54554;BME280;40450;55.848;-3.572;2023-05-19T09:20:36;100674.95;;;9.39;80.37
54554;BME280;40450;55.848;-3.572;2023-05-19T09:23:10;100674.48;;;10.20;80.73
54554;BME280;40450;55.848;-3.572;2023-05-19T09:25:36;100670.42;;;10.73;80.41
54554;BME280;40450;55.848;-3.572;2023-05-19T09:28:08;100672.26;;;9.25;83.32
54554;BME280;40450;55.848;-3.572;2023-05-19T09:30:36;100672.35;;;10.34;82.17
54554;BME280;40450;55.848;-3.572;2023-05-19T09:33:07;100670.38;;;11.94;75.89
54554;BME280;40450;55.848;-3.572;2023-05-19T09:38:16;100674.49;;;9.65;83.02
54554;BME280;40450;55.848;-3.572;2023-05-19T09:40:38;100677.58;;;12.57;76.62
54554;BME280;40450;55.848;-3.572;2023-05-19T09:43:10;100676.64;;;12.16;73.40
54554;BME280;40450;55.848;-3.572;2023-05-19T09:45:39;100673.96;;;11.99;73.08
54554;BME280;40450;55.848;-3.572;2023-05-19T09:48:11;100667.93;;;13.08;70.84
54554;BME280;40450;55.848;-3.572;2023-05-19T09:50:45;100676.14;;;11.33;78.13
54554;BME280;40450;55.848;-3.572;2023-05-19T09:53:12;100670.47;;;13.26;75.17
54554;BME280;40450;55.848;-3.572;2023-05-19T09:55:45;100673.17;;;14.01;71.77
54554;BME280;40450;55.848;-3.572;2023-05-19T09:58:16;100669.11;;;14.97;68.81
54554;BME280;40450;55.848;-3.572;2023-05-19T10:00:46;100673.97;;;16.30;65.75
54554;BME280;40450;55.848;-3.572;2023-05-19T10:03:12;100678.27;;;14.54;65.99
54554;BME280;40450;55.848;-3.572;2023-05-19T10:05:42;100682.85;;;13.59;67.19
54554;BME280;40450;55.848;-3.572;2023-05-19T10:08:11;100695.35;;;12.64;71.29
54554;BME280;40450;55.848;-3.572;2023-05-19T10:10:47;100700.33;;;9.35;80.53
54554;BME280;40450;55.848;-3.572;2023-05-19T10:13:17;100698.62;;;11.86;77.01
54554;BME280;40450;55.848;-3.572;2023-05-19T10:15:42;100697.31;;;11.33;77.04
54554;BME280;40450;55.848;-3.572;2023-05-19T10:18:19;100697.32;;;11.41;74.86
54554;BME280;40450;55.848;-3.572;2023-05-19T10:20:44;100693.83;;;11.78;73.54
54554;BME280;40450;55.848;-3.572;2023-05-19T10:23:13;100695.89;;;12.88;73.33
54554;BME280;40450;55.848;-3.572;2023-05-19T10:25:43;100697.71;;;12.10;76.56
54554;BME280;40450;55.848;-3.572;2023-05-19T10:28:16;100699.99;;;12.15;74.82
54554;BME280;40450;55.848;-3.572;2023-05-19T10:30:46;100701.24;;;10.66;79.66
54554;BME280;40450;55.848;-3.572;2023-05-19T10:33:15;100699.77;;;10.38;79.28
54554;BME280;40450;55.848;-3.572;2023-05-19T10:35:59;100696.92;;;11.94;74.24
54554;BME280;40450;55.848;-3.572;2023-05-19T10:38:23;100696.15;;;11.32;75.09
54554;BME280;40450;55.848;-3.572;2023-05-19T10:40:54;100698.34;;;12.03;73.80
54554;BME280;40450;55.848;-3.572;2023-05-19T10:43:32;100697.93;;;11.81;76.05
54554;BME280;40450;55.848;-3.572;2023-05-19T10:45:47;100693.73;;;11.54;74.54
54554;BME280;40450;55.848;-3.572;2023-05-19T10:48:17;100696.72;;;11.16;78.26
54554;BME280;40450;55.848;-3.572;2023-05-19T10:50:46;100690.35;;;13.80;73.52
54554;BME280;40450;55.848;-3.572;2023-05-19T10:53:17;100686.82;;;15.28;67.10
54554;BME280;40450;55.848;-3.572;2023-05-19T10:55:50;100682.33;;;16.21;64.33
54554;BME280;40450;55.848;-3.572;2023-05-19T11:03:17;100673.99;;;15.99;57.81
54554;BME280;40450;55.848;-3.572;2023-05-19T11:05:48;100678.68;;;15.01;59.76
54554;BME280;40450;55.848;-3.572;2023-05-19T11:08:30;100682.32;;;12.02;65.76
54554;BME280;40450;55.848;-3.572;2023-05-19T11:10:51;100685.66;;;11.84;71.45
54554;BME280;40450;55.848;-3.572;2023-05-19T11:15:49;100687.71;;;12.85;68.60
54554;BME280;40450;55.848;-3.572;2023-05-19T11:18:19;100684.94;;;14.94;62.15
54554;BME280;40450;55.848;-3.572;2023-05-19T11:20:54;100681.39;;;14.99;61.30
54554;BME280;40450;55.848;-3.572;2023-05-19T11:23:20;100688.86;;;13.04;68.12
54554;BME280;40450;55.848;-3.572;2023-05-19T11:25:51;100691.84;;;13.13;68.13
54554;BME280;40450;55.848;-3.572;2023-05-19T11:28:22;100686.74;;;15.83;62.36
54554;BME280;40450;55.848;-3.572;2023-05-19T11:30:53;100685.94;;;16.84;56.54
54554;BME280;40450;55.848;-3.572;2023-05-19T11:33:22;100681.88;;;17.51;53.45
54554;BME280;40450;55.848;-3.572;2023-05-19T11:35:54;100695.57;;;16.51;56.60
54554;BME280;40450;55.848;-3.572;2023-05-19T11:38:22;100685.79;;;18.13;52.02
54554;BME280;40450;55.848;-3.572;2023-05-19T11:40:53;100678.21;;;18.45;48.00
54554;BME280;40450;55.848;-3.572;2023-05-19T11:43:24;100679.15;;;18.91;50.65
54554;BME280;40450;55.848;-3.572;2023-05-19T11:45:54;100677.11;;;18.11;50.48
54554;BME280;40450;55.848;-3.572;2023-05-19T11:48:25;100679.51;;;14.94;56.39
54554;BME280;40450;55.848;-3.572;2023-05-19T11:50:54;100681.53;;;16.95;55.31
54554;BME280;40450;55.848;-3.572;2023-05-19T11:53:25;100670.71;;;18.06;52.64
54554;BME280;40450;55.848;-3.572;2023-05-19T11:55:55;100669.47;;;18.82;50.48
54554;BME280;40450;55.848;-3.572;2023-05-19T11:58:25;100672.54;;;18.47;47.71
54554;BME280;40450;55.848;-3.572;2023-05-19T12:00:56;100676.90;;;19.11;48.63
54554;BME280;40450;55.848;-3.572;2023-05-19T12:03:26;100682.90;;;17.76;48.24
54554;BME280;40450;55.848;-3.572;2023-05-19T12:05:56;100680.75;;;18.86;46.09
54554;BME280;40450;55.848;-3.572;2023-05-19T12:08:28;100684.22;;;19.49;46.76
54554;BME280;40450;55.848;-3.572;2023-05-19T12:10:57;100684.36;;;19.43;45.78
54554;BME280;40450;55.848;-3.572;2023-05-19T12:13:28;100687.75;;;17.52;50.15
54554;BME280;40450;55.848;-3.572;2023-05-19T12:15:59;100681.28;;;18.44;47.01
54554;BME280;40450;55.848;-3.572;2023-05-19T12:18:29;100682.60;;;15.02;58.29
54554;BME280;40450;55.848;-3.572;2023-05-19T12:20:59;100676.25;;;15.66;57.15
54554;BME280;40450;55.848;-3.572;2023-05-19T12:23:29;100666.98;;;18.04;51.23
54554;BME280;40450;55.848;-3.572;2023-05-19T12:26:00;100664.59;;;19.07;47.45
54554;BME280;40450;55.848;-3.572;2023-05-19T12:28:30;100665.19;;;19.92;48.16
54554;BME280;40450;55.848;-3.572;2023-05-19T12:31:01;100668.86;;;19.71;46.09
54554;BME280;40450;55.848;-3.572;2023-05-19T12:33:32;100673.33;;;19.35;45.21
54554;BME280;40450;55.848;-3.572;2023-05-19T12:36:01;100676.67;;;17.50;51.49
54554;BME280;40450;55.848;-3.572;2023-05-19T12:38:31;100676.65;;;19.50;43.98
54554;BME280;40450;55.848;-3.572;2023-05-19T12:41:02;100678.63;;;19.97;45.14
54554;BME280;40450;55.848;-3.572;2023-05-19T12:43:32;100684.69;;;20.46;44.38
54554;BME280;40450;55.848;-3.572;2023-05-19T12:46:08;100685.27;;;17.28;49.94
54554;BME280;40450;55.848;-3.572;2023-05-19T12:48:32;100689.31;;;18.36;48.31
54554;BME280;40450;55.848;-3.572;2023-05-19T12:51:03;100696.40;;;16.18;54.47
54554;BME280;40450;55.848;-3.572;2023-05-19T12:53:33;100692.17;;;17.73;52.02
54554;BME280;40450;55.848;-3.572;2023-05-19T12:56:10;100699.62;;;16.60;55.51
54554;BME280;40450;55.848;-3.572;2023-05-19T12:58:35;100696.82;;;15.82;57.55
54554;BME280;40450;55.848;-3.572;2023-05-19T13:01:05;100687.70;;;15.63;59.70
54554;BME280;40450;55.848;-3.572;2023-05-19T13:03:39;100691.33;;;16.59;56.04
54554;BME280;40450;55.848;-3.572;2023-05-19T13:06:05;100680.36;;;18.98;51.40
54554;BME280;40450;55.848;-3.572;2023-05-19T13:08:36;100689.18;;;16.76;53.69
54554;BME280;40450;55.848;-3.572;2023-05-19T13:11:05;100691.81;;;16.54;56.00
54554;BME280;40450;55.848;-3.572;2023-05-19T13:13:36;100675.07;;;18.30;52.38